sensor_id;sensor_type;location;lat;lon;timestamp;P1;durP1;ratioP1;P2;durP2;ratioP2
13807;SDS011;40769;51.512;5.494;2023-07-02T00:00:58;6.95;;;5.22;;
13807;SDS011;40769;51.512;5.494;2023-07-02T00:03:24;7.25;;;5.10;;
13807;SDS011;40769;51.512;5.494;2023-07-02T00:05:50;6.10;;;4.75;;
13807;SDS011;40769;51.512;5.494;2023-07-02T00:08:19;5.85;;;5.18;;
13807;SDS011;40769;51.512;5.494;2023-07-02T00:10:46;6.75;;;5.38;;
13807;SDS011;40769;51.512;5.494;2023-07-02T00:13:12;7.05;;;5.53;;
13807;SDS011;40769;51.512;5.494;2023-07-02T00:15:38;6.72;;;5.80;;
13807;SDS011;40769;51.512;5.494;2023-07-02T00:18:03;7.35;;;5.88;;
13807;SDS011;40769;51.512;5.494;2023-07-02T00:20:29;7.82;;;5.78;;
13807;SDS011;40769;51.512;5.494;2023-07-02T00:22:55;6.93;;;5.82;;
13807;SDS011;40769;51.512;5.494;2023-07-02T00:25:21;6.63;;;4.97;;
13807;SDS011;40769;51.512;5.494;2023-07-02T00:27:46;7.60;;;5.70;;
13807;SDS011;40769;51.512;5.494;2023-07-02T00:30:12;6.95;;;6.28;;
13807;SDS011;40769;51.512;5.494;2023-07-02T00:32:38;9.60;;;7.00;;
13807;SDS011;40769;51.512;5.494;2023-07-02T00:35:04;8.45;;;5.88;;
13807;SDS011;40769;51.512;5.494;2023-07-02T00:37:30;7.57;;;6.75;;
13807;SDS011;40769;51.512;5.494;2023-07-02T00:39:56;8.60;;;6.70;;
13807;SDS011;40769;51.512;5.494;2023-07-02T00:42:22;8.80;;;7.03;;
13807;SDS011;40769;51.512;5.494;2023-07-02T00:44:48;8.15;;;7.00;;
13807;SDS011;40769;51.512;5.494;2023-07-02T00:47:17;9.02;;;6.60;;
13807;SDS011;40769;51.512;5.494;2023-07-02T00:49:43;8.73;;;7.47;;
13807;SDS011;40769;51.512;5.494;2023-07-02T00:52:09;9.23;;;6.82;;
13807;SDS011;40769;51.512;5.494;2023-07-02T00:54:35;8.68;;;7.75;;
13807;SDS011;40769;51.512;5.494;2023-07-02T00:57:01;8.90;;;7.25;;
13807;SDS011;40769;51.512;5.494;2023-07-02T00:59:29;7.85;;;7.07;;
13807;SDS011;40769;51.512;5.494;2023-07-02T01:01:55;9.90;;;7.60;;
13807;SDS011;40769;51.512;5.494;2023-07-02T01:04:22;10.23;;;7.90;;
13807;SDS011;40769;51.512;5.494;2023-07-02T01:06:52;8.35;;;6.55;;
13807;SDS011;40769;51.512;5.494;2023-07-02T01:09:22;9.02;;;7.60;;
13807;SDS011;40769;51.512;5.494;2023-07-02T01:11:57;9.30;;;7.13;;
13807;SDS011;40769;51.512;5.494;2023-07-02T01:14:26;10.02;;;7.82;;
13807;SDS011;40769;51.512;5.494;2023-07-02T01:17:03;11.23;;;8.77;;
13807;SDS011;40769;51.512;5.494;2023-07-02T01:19:43;11.38;;;8.88;;
13807;SDS011;40769;51.512;5.494;2023-07-02T01:22:17;8.88;;;7.57;;
13807;SDS011;40769;51.512;5.494;2023-07-02T01:24:47;8.88;;;7.10;;
13807;SDS011;40769;51.512;5.494;2023-07-02T01:27:13;7.97;;;6.43;;
13807;SDS011;40769;51.512;5.494;2023-07-02T01:29:40;7.15;;;6.43;;
13807;SDS011;40769;51.512;5.494;2023-07-02T01:32:07;9.85;;;8.63;;
13807;SDS011;40769;51.512;5.494;2023-07-02T01:34:33;9.52;;;8.40;;
13807;SDS011;40769;51.512;5.494;2023-07-02T01:36:59;11.30;;;8.70;;
13807;SDS011;40769;51.512;5.494;2023-07-02T01:39:26;8.98;;;8.05;;
13807;SDS011;40769;51.512;5.494;2023-07-02T01:41:55;9.40;;;8.40;;
13807;SDS011;40769;51.512;5.494;2023-07-02T01:44:32;8.50;;;7.70;;
13807;SDS011;40769;51.512;5.494;2023-07-02T01:46:57;10.25;;;9.25;;
13807;SDS011;40769;51.512;5.494;2023-07-02T01:49:23;9.60;;;7.95;;
13807;SDS011;40769;51.512;5.494;2023-07-02T01:51:52;10.75;;;9.13;;
13807;SDS011;40769;51.512;5.494;2023-07-02T01:54:19;11.60;;;9.65;;
13807;SDS011;40769;51.512;5.494;2023-07-02T01:56:46;12.13;;;9.48;;
13807;SDS011;40769;51.512;5.494;2023-07-02T01:59:11;12.70;;;10.75;;
13807;SDS011;40769;51.512;5.494;2023-07-02T02:01:38;10.27;;;9.00;;
13807;SDS011;40769;51.512;5.494;2023-07-02T02:04:07;11.90;;;10.10;;
13807;SDS011;40769;51.512;5.494;2023-07-02T02:06:34;9.52;;;8.52;;
13807;SDS011;40769;51.512;5.494;2023-07-02T02:09:00;13.35;;;10.73;;
13807;SDS011;40769;51.512;5.494;2023-07-02T02:11:29;12.40;;;11.10;;
13807;SDS011;40769;51.512;5.494;2023-07-02T02:13:55;14.73;;;10.70;;
13807;SDS011;40769;51.512;5.494;2023-07-02T02:16:22;11.63;;;9.38;;
13807;SDS011;40769;51.512;5.494;2023-07-02T02:18:48;12.30;;;9.55;;
13807;SDS011;40769;51.512;5.494;2023-07-02T02:21:16;12.55;;;10.43;;
13807;SDS011;40769;51.512;5.494;2023-07-02T02:23:43;11.88;;;10.38;;
13807;SDS011;40769;51.512;5.494;2023-07-02T02:26:08;16.55;;;12.82;;
13807;SDS011;40769;51.512;5.494;2023-07-02T02:28:34;14.00;;;12.35;;
13807;SDS011;40769;51.512;5.494;2023-07-02T02:30:59;16.15;;;12.05;;
13807;SDS011;40769;51.512;5.494;2023-07-02T02:33:25;13.27;;;11.88;;
13807;SDS011;40769;51.512;5.494;2023-07-02T02:35:51;14.48;;;12.02;;
13807;SDS011;40769;51.512;5.494;2023-07-02T02:38:17;15.63;;;12.90;;
13807;SDS011;40769;51.512;5.494;2023-07-02T02:40:43;15.20;;;12.75;;
13807;SDS011;40769;51.512;5.494;2023-07-02T02:43:08;15.57;;;12.10;;
13807;SDS011;40769;51.512;5.494;2023-07-02T02:45:34;14.88;;;12.30;;
13807;SDS011;40769;51.512;5.494;2023-07-02T02:48:00;15.38;;;12.50;;
13807;SDS011;40769;51.512;5.494;2023-07-02T02:50:25;12.02;;;10.82;;
13807;SDS011;40769;51.512;5.494;2023-07-02T02:52:51;16.77;;;13.75;;
13807;SDS011;40769;51.512;5.494;2023-07-02T02:55:18;14.55;;;13.02;;
13807;SDS011;40769;51.512;5.494;2023-07-02T02:57:43;15.63;;;13.35;;
13807;SDS011;40769;51.512;5.494;2023-07-02T03:00:09;15.27;;;13.70;;
13807;SDS011;40769;51.512;5.494;2023-07-02T03:02:36;15.82;;;13.23;;
13807;SDS011;40769;51.512;5.494;2023-07-02T03:05:02;17.65;;;13.48;;
13807;SDS011;40769;51.512;5.494;2023-07-02T03:07:29;15.68;;;13.50;;
13807;SDS011;40769;51.512;5.494;2023-07-02T03:09:55;15.10;;;13.10;;
13807;SDS011;40769;51.512;5.494;2023-07-02T03:12:21;16.13;;;14.45;;
13807;SDS011;40769;51.512;5.494;2023-07-02T03:14:47;16.38;;;14.55;;
13807;SDS011;40769;51.512;5.494;2023-07-02T03:17:16;16.73;;;14.13;;
13807;SDS011;40769;51.512;5.494;2023-07-02T03:19:42;17.70;;;14.27;;
13807;SDS011;40769;51.512;5.494;2023-07-02T03:22:08;14.85;;;13.30;;
13807;SDS011;40769;51.512;5.494;2023-07-02T03:24:33;14.63;;;12.55;;
13807;SDS011;40769;51.512;5.494;2023-07-02T03:26:59;13.90;;;12.18;;
13807;SDS011;40769;51.512;5.494;2023-07-02T03:29:25;15.50;;;13.80;;
13807;SDS011;40769;51.512;5.494;2023-07-02T03:31:50;14.00;;;12.50;;
13807;SDS011;40769;51.512;5.494;2023-07-02T03:34:16;13.25;;;11.88;;
13807;SDS011;40769;51.512;5.494;2023-07-02T03:36:41;15.43;;;13.00;;
13807;SDS011;40769;51.512;5.494;2023-07-02T03:39:08;12.70;;;11.23;;
13807;SDS011;40769;51.512;5.494;2023-07-02T03:41:34;14.23;;;12.27;;
13807;SDS011;40769;51.512;5.494;2023-07-02T03:44:00;16.40;;;13.18;;
13807;SDS011;40769;51.512;5.494;2023-07-02T03:46:25;13.48;;;11.68;;
13807;SDS011;40769;51.512;5.494;2023-07-02T03:48:51;15.63;;;12.15;;
13807;SDS011;40769;51.512;5.494;2023-07-02T03:51:17;13.63;;;12.07;;
13807;SDS011;40769;51.512;5.494;2023-07-02T03:53:42;12.70;;;11.00;;
13807;SDS011;40769;51.512;5.494;2023-07-02T03:56:08;15.18;;;11.63;;
13807;SDS011;40769;51.512;5.494;2023-07-02T03:58:34;12.27;;;10.20;;
13807;SDS011;40769;51.512;5.494;2023-07-02T04:01:00;14.18;;;11.63;;
13807;SDS011;40769;51.512;5.494;2023-07-02T04:03:26;13.38;;;11.63;;
13807;SDS011;40769;51.512;5.494;2023-07-02T04:05:51;11.25;;;9.38;;
13807;SDS011;40769;51.512;5.494;2023-07-02T04:08:17;12.05;;;10.77;;
13807;SDS011;40769;51.512;5.494;2023-07-02T04:10:45;12.15;;;10.77;;
13807;SDS011;40769;51.512;5.494;2023-07-02T04:13:11;10.02;;;8.90;;
13807;SDS011;40769;51.512;5.494;2023-07-02T04:15:37;11.15;;;9.93;;
13807;SDS011;40769;51.512;5.494;2023-07-02T04:18:02;10.65;;;8.98;;
13807;SDS011;40769;51.512;5.494;2023-07-02T04:20:28;10.57;;;9.50;;
13807;SDS011;40769;51.512;5.494;2023-07-02T04:22:54;12.93;;;9.95;;
13807;SDS011;40769;51.512;5.494;2023-07-02T04:25:20;13.20;;;9.38;;
13807;SDS011;40769;51.512;5.494;2023-07-02T04:27:48;11.10;;;9.55;;
13807;SDS011;40769;51.512;5.494;2023-07-02T04:30:14;10.90;;;9.75;;
13807;SDS011;40769;51.512;5.494;2023-07-02T04:32:40;10.00;;;8.70;;
13807;SDS011;40769;51.512;5.494;2023-07-02T04:35:06;11.30;;;8.07;;
13807;SDS011;40769;51.512;5.494;2023-07-02T04:37:36;12.57;;;9.48;;
13807;SDS011;40769;51.512;5.494;2023-07-02T04:40:02;14.57;;;10.73;;
13807;SDS011;40769;51.512;5.494;2023-07-02T04:42:37;10.55;;;9.48;;
13807;SDS011;40769;51.512;5.494;2023-07-02T04:45:04;12.32;;;9.57;;
13807;SDS011;40769;51.512;5.494;2023-07-02T04:47:31;13.30;;;10.40;;
13807;SDS011;40769;51.512;5.494;2023-07-02T04:49:57;13.93;;;10.55;;
13807;SDS011;40769;51.512;5.494;2023-07-02T04:52:25;14.05;;;11.07;;
13807;SDS011;40769;51.512;5.494;2023-07-02T04:54:51;12.52;;;9.88;;
13807;SDS011;40769;51.512;5.494;2023-07-02T04:57:17;12.20;;;9.98;;
13807;SDS011;40769;51.512;5.494;2023-07-02T04:59:43;12.20;;;9.65;;
13807;SDS011;40769;51.512;5.494;2023-07-02T05:02:08;11.55;;;9.70;;
13807;SDS011;40769;51.512;5.494;2023-07-02T05:04:35;15.88;;;10.05;;
13807;SDS011;40769;51.512;5.494;2023-07-02T05:07:02;10.43;;;8.70;;
13807;SDS011;40769;51.512;5.494;2023-07-02T05:09:28;11.40;;;9.75;;
13807;SDS011;40769;51.512;5.494;2023-07-02T05:11:54;11.25;;;8.95;;
13807;SDS011;40769;51.512;5.494;2023-07-02T05:14:19;11.85;;;9.00;;
13807;SDS011;40769;51.512;5.494;2023-07-02T05:16:45;11.98;;;9.52;;
13807;SDS011;40769;51.512;5.494;2023-07-02T05:19:11;12.48;;;8.63;;
13807;SDS011;40769;51.512;5.494;2023-07-02T05:21:36;11.02;;;8.82;;
13807;SDS011;40769;51.512;5.494;2023-07-02T05:24:02;11.57;;;8.68;;
13807;SDS011;40769;51.512;5.494;2023-07-02T05:26:28;12.80;;;8.88;;
13807;SDS011;40769;51.512;5.494;2023-07-02T05:28:53;12.20;;;8.57;;
13807;SDS011;40769;51.512;5.494;2023-07-02T05:31:19;12.13;;;8.27;;
13807;SDS011;40769;51.512;5.494;2023-07-02T05:33:45;11.15;;;8.48;;
13807;SDS011;40769;51.512;5.494;2023-07-02T05:36:10;10.82;;;7.57;;
13807;SDS011;40769;51.512;5.494;2023-07-02T05:38:36;9.80;;;8.02;;
13807;SDS011;40769;51.512;5.494;2023-07-02T05:41:02;10.52;;;7.57;;
13807;SDS011;40769;51.512;5.494;2023-07-02T05:43:28;9.20;;;7.03;;
13807;SDS011;40769;51.512;5.494;2023-07-02T05:45:54;9.90;;;7.75;;
13807;SDS011;40769;51.512;5.494;2023-07-02T05:48:22;8.75;;;7.82;;
13807;SDS011;40769;51.512;5.494;2023-07-02T05:50:48;9.52;;;7.25;;
13807;SDS011;40769;51.512;5.494;2023-07-02T05:53:13;8.52;;;6.57;;
13807;SDS011;40769;51.512;5.494;2023-07-02T05:55:39;10.23;;;7.53;;
13807;SDS011;40769;51.512;5.494;2023-07-02T05:58:06;12.82;;;7.45;;
13807;SDS011;40769;51.512;5.494;2023-07-02T06:00:32;10.60;;;7.53;;
13807;SDS011;40769;51.512;5.494;2023-07-02T06:02:57;11.02;;;6.80;;
13807;SDS011;40769;51.512;5.494;2023-07-02T06:05:23;9.80;;;6.55;;
13807;SDS011;40769;51.512;5.494;2023-07-02T06:07:49;9.60;;;6.80;;
13807;SDS011;40769;51.512;5.494;2023-07-02T06:10:14;9.73;;;6.75;;
13807;SDS011;40769;51.512;5.494;2023-07-02T06:12:40;9.18;;;6.57;;
13807;SDS011;40769;51.512;5.494;2023-07-02T06:15:08;13.85;;;7.15;;
13807;SDS011;40769;51.512;5.494;2023-07-02T06:17:34;9.07;;;6.18;;
13807;SDS011;40769;51.512;5.494;2023-07-02T06:19:59;10.10;;;5.80;;
13807;SDS011;40769;51.512;5.494;2023-07-02T06:22:29;7.68;;;5.93;;
13807;SDS011;40769;51.512;5.494;2023-07-02T06:24:55;11.75;;;6.40;;
13807;SDS011;40769;51.512;5.494;2023-07-02T06:27:21;8.65;;;6.05;;
13807;SDS011;40769;51.512;5.494;2023-07-02T06:29:47;7.82;;;5.88;;
13807;SDS011;40769;51.512;5.494;2023-07-02T06:32:13;9.27;;;6.55;;
13807;SDS011;40769;51.512;5.494;2023-07-02T06:34:38;8.77;;;6.15;;
13807;SDS011;40769;51.512;5.494;2023-07-02T06:37:04;9.80;;;6.75;;
13807;SDS011;40769;51.512;5.494;2023-07-02T06:39:30;8.38;;;5.05;;
13807;SDS011;40769;51.512;5.494;2023-07-02T06:41:55;8.60;;;5.63;;
13807;SDS011;40769;51.512;5.494;2023-07-02T06:44:21;9.38;;;6.20;;
13807;SDS011;40769;51.512;5.494;2023-07-02T06:46:47;7.68;;;4.85;;
13807;SDS011;40769;51.512;5.494;2023-07-02T06:49:13;7.38;;;5.18;;
13807;SDS011;40769;51.512;5.494;2023-07-02T06:51:38;7.68;;;5.75;;
13807;SDS011;40769;51.512;5.494;2023-07-02T06:54:04;11.00;;;5.50;;
13807;SDS011;40769;51.512;5.494;2023-07-02T06:56:30;7.32;;;5.90;;
13807;SDS011;40769;51.512;5.494;2023-07-02T06:58:59;8.60;;;5.10;;
13807;SDS011;40769;51.512;5.494;2023-07-02T07:01:28;9.02;;;5.82;;
13807;SDS011;40769;51.512;5.494;2023-07-02T07:03:56;7.75;;;5.40;;
13807;SDS011;40769;51.512;5.494;2023-07-02T07:06:23;6.80;;;5.40;;
13807;SDS011;40769;51.512;5.494;2023-07-02T07:08:49;7.32;;;5.30;;
13807;SDS011;40769;51.512;5.494;2023-07-02T07:11:14;9.32;;;5.90;;
13807;SDS011;40769;51.512;5.494;2023-07-02T07:13:40;7.78;;;5.10;;
13807;SDS011;40769;51.512;5.494;2023-07-02T07:16:06;8.00;;;5.88;;
13807;SDS011;40769;51.512;5.494;2023-07-02T07:18:32;9.25;;;6.00;;
13807;SDS011;40769;51.512;5.494;2023-07-02T07:20:57;7.07;;;5.20;;
13807;SDS011;40769;51.512;5.494;2023-07-02T07:23:23;8.13;;;5.28;;
13807;SDS011;40769;51.512;5.494;2023-07-02T07:25:48;9.05;;;5.93;;
13807;SDS011;40769;51.512;5.494;2023-07-02T07:28:14;7.55;;;5.03;;
13807;SDS011;40769;51.512;5.494;2023-07-02T07:30:43;6.95;;;4.90;;
13807;SDS011;40769;51.512;5.494;2023-07-02T07:33:09;7.15;;;4.95;;
13807;SDS011;40769;51.512;5.494;2023-07-02T07:35:35;6.57;;;4.53;;
13807;SDS011;40769;51.512;5.494;2023-07-02T07:38:01;7.00;;;4.65;;
13807;SDS011;40769;51.512;5.494;2023-07-02T07:40:27;8.73;;;5.03;;
13807;SDS011;40769;51.512;5.494;2023-07-02T07:42:52;6.50;;;4.43;;
13807;SDS011;40769;51.512;5.494;2023-07-02T07:45:18;9.82;;;5.43;;
13807;SDS011;40769;51.512;5.494;2023-07-02T07:47:44;9.93;;;4.72;;
13807;SDS011;40769;51.512;5.494;2023-07-02T07:50:09;5.90;;;4.10;;
13807;SDS011;40769;51.512;5.494;2023-07-02T07:52:38;8.10;;;4.93;;
13807;SDS011;40769;51.512;5.494;2023-07-02T07:55:08;6.97;;;4.93;;
13807;SDS011;40769;51.512;5.494;2023-07-02T07:57:34;8.77;;;4.20;;
13807;SDS011;40769;51.512;5.494;2023-07-02T08:00:01;6.93;;;4.55;;
13807;SDS011;40769;51.512;5.494;2023-07-02T08:02:29;6.22;;;4.18;;
13807;SDS011;40769;51.512;5.494;2023-07-02T08:04:55;7.88;;;4.50;;
13807;SDS011;40769;51.512;5.494;2023-07-02T08:07:20;8.30;;;4.82;;
13807;SDS011;40769;51.512;5.494;2023-07-02T08:09:46;6.80;;;4.25;;
13807;SDS011;40769;51.512;5.494;2023-07-02T08:12:12;7.15;;;3.95;;
13807;SDS011;40769;51.512;5.494;2023-07-02T08:14:38;6.57;;;3.88;;
13807;SDS011;40769;51.512;5.494;2023-07-02T08:17:04;6.60;;;4.32;;
13807;SDS011;40769;51.512;5.494;2023-07-02T08:19:29;7.38;;;4.40;;
13807;SDS011;40769;51.512;5.494;2023-07-02T08:21:55;6.63;;;4.55;;
13807;SDS011;40769;51.512;5.494;2023-07-02T08:24:21;6.88;;;4.70;;
13807;SDS011;40769;51.512;5.494;2023-07-02T08:26:46;8.02;;;4.47;;
13807;SDS011;40769;51.512;5.494;2023-07-02T08:29:14;6.93;;;4.30;;
13807;SDS011;40769;51.512;5.494;2023-07-02T08:31:40;5.50;;;3.85;;
13807;SDS011;40769;51.512;5.494;2023-07-02T08:34:06;6.45;;;4.00;;
13807;SDS011;40769;51.512;5.494;2023-07-02T08:36:32;6.53;;;4.50;;
13807;SDS011;40769;51.512;5.494;2023-07-02T08:39:00;7.05;;;4.45;;
13807;SDS011;40769;51.512;5.494;2023-07-02T08:41:26;5.95;;;4.60;;
13807;SDS011;40769;51.512;5.494;2023-07-02T08:43:54;7.47;;;4.20;;
13807;SDS011;40769;51.512;5.494;2023-07-02T08:46:20;5.78;;;4.15;;
13807;SDS011;40769;51.512;5.494;2023-07-02T08:48:46;7.18;;;3.97;;
13807;SDS011;40769;51.512;5.494;2023-07-02T08:51:12;6.18;;;4.25;;
13807;SDS011;40769;51.512;5.494;2023-07-02T08:53:38;4.80;;;4.00;;
13807;SDS011;40769;51.512;5.494;2023-07-02T08:56:04;6.35;;;4.32;;
13807;SDS011;40769;51.512;5.494;2023-07-02T08:58:29;6.38;;;4.40;;
13807;SDS011;40769;51.512;5.494;2023-07-02T09:03:34;5.50;;;3.78;;
13807;SDS011;40769;51.512;5.494;2023-07-02T09:06:07;11.93;;;4.63;;
13807;SDS011;40769;51.512;5.494;2023-07-02T09:08:36;5.68;;;4.10;;
13807;SDS011;40769;51.512;5.494;2023-07-02T09:11:15;5.05;;;3.95;;
13807;SDS011;40769;51.512;5.494;2023-07-02T09:13:52;6.20;;;4.00;;
13807;SDS011;40769;51.512;5.494;2023-07-02T09:16:27;6.85;;;3.83;;
13807;SDS011;40769;51.512;5.494;2023-07-02T09:19:04;7.60;;;4.30;;
13807;SDS011;40769;51.512;5.494;2023-07-02T09:21:46;7.30;;;4.07;;
13807;SDS011;40769;51.512;5.494;2023-07-02T09:24:13;7.65;;;4.00;;
13807;SDS011;40769;51.512;5.494;2023-07-02T09:26:42;5.88;;;4.00;;
13807;SDS011;40769;51.512;5.494;2023-07-02T09:29:11;5.90;;;3.72;;
13807;SDS011;40769;51.512;5.494;2023-07-02T09:31:47;6.55;;;4.30;;
13807;SDS011;40769;51.512;5.494;2023-07-02T09:34:14;5.32;;;3.38;;
13807;SDS011;40769;51.512;5.494;2023-07-02T09:36:40;7.18;;;3.90;;
13807;SDS011;40769;51.512;5.494;2023-07-02T09:39:18;5.15;;;3.63;;
13807;SDS011;40769;51.512;5.494;2023-07-02T09:41:47;6.32;;;3.95;;
13807;SDS011;40769;51.512;5.494;2023-07-02T09:44:15;6.07;;;4.00;;
13807;SDS011;40769;51.512;5.494;2023-07-02T09:46:43;6.60;;;4.25;;
13807;SDS011;40769;51.512;5.494;2023-07-02T09:49:14;6.03;;;4.38;;
13807;SDS011;40769;51.512;5.494;2023-07-02T09:51:43;6.22;;;4.50;;
13807;SDS011;40769;51.512;5.494;2023-07-02T09:54:11;6.80;;;4.38;;
13807;SDS011;40769;51.512;5.494;2023-07-02T09:56:39;7.00;;;4.35;;
13807;SDS011;40769;51.512;5.494;2023-07-02T09:59:05;7.15;;;4.07;;
13807;SDS011;40769;51.512;5.494;2023-07-02T10:01:30;6.68;;;4.38;;
13807;SDS011;40769;51.512;5.494;2023-07-02T10:03:56;5.30;;;4.13;;
13807;SDS011;40769;51.512;5.494;2023-07-02T10:06:22;6.32;;;4.03;;
13807;SDS011;40769;51.512;5.494;2023-07-02T10:08:54;6.45;;;4.15;;
13807;SDS011;40769;51.512;5.494;2023-07-02T10:11:20;6.60;;;4.55;;
13807;SDS011;40769;51.512;5.494;2023-07-02T10:13:57;8.95;;;4.10;;
13807;SDS011;40769;51.512;5.494;2023-07-02T10:16:24;8.95;;;4.43;;
13807;SDS011;40769;51.512;5.494;2023-07-02T10:18:52;9.45;;;4.57;;
13807;SDS011;40769;51.512;5.494;2023-07-02T10:21:18;6.93;;;4.40;;
13807;SDS011;40769;51.512;5.494;2023-07-02T10:23:44;6.85;;;4.72;;
13807;SDS011;40769;51.512;5.494;2023-07-02T10:26:13;7.53;;;4.65;;
13807;SDS011;40769;51.512;5.494;2023-07-02T10:28:43;6.85;;;4.00;;
13807;SDS011;40769;51.512;5.494;2023-07-02T10:31:24;6.03;;;4.03;;
13807;SDS011;40769;51.512;5.494;2023-07-02T10:33:49;6.78;;;4.13;;
13807;SDS011;40769;51.512;5.494;2023-07-02T10:36:19;6.80;;;4.15;;
13807;SDS011;40769;51.512;5.494;2023-07-02T10:38:46;6.20;;;3.97;;
13807;SDS011;40769;51.512;5.494;2023-07-02T10:41:22;5.63;;;3.92;;
13807;SDS011;40769;51.512;5.494;2023-07-02T10:43:51;8.60;;;4.03;;
13807;SDS011;40769;51.512;5.494;2023-07-02T10:46:21;6.07;;;4.57;;
13807;SDS011;40769;51.512;5.494;2023-07-02T10:48:56;8.20;;;5.18;;
13807;SDS011;40769;51.512;5.494;2023-07-02T10:51:22;8.60;;;5.10;;
13807;SDS011;40769;51.512;5.494;2023-07-02T10:54:01;5.80;;;4.07;;
13807;SDS011;40769;51.512;5.494;2023-07-02T10:56:29;8.20;;;4.38;;
13807;SDS011;40769;51.512;5.494;2023-07-02T10:58:56;8.82;;;5.30;;
13807;SDS011;40769;51.512;5.494;2023-07-02T11:01:23;7.97;;;4.50;;
13807;SDS011;40769;51.512;5.494;2023-07-02T11:03:55;7.85;;;4.88;;
13807;SDS011;40769;51.512;5.494;2023-07-02T11:06:22;8.00;;;5.13;;
13807;SDS011;40769;51.512;5.494;2023-07-02T11:08:47;8.35;;;5.38;;
13807;SDS011;40769;51.512;5.494;2023-07-02T11:11:13;9.60;;;5.65;;
13807;SDS011;40769;51.512;5.494;2023-07-02T11:13:45;8.95;;;5.85;;
13807;SDS011;40769;51.512;5.494;2023-07-02T11:16:19;8.63;;;5.75;;
13807;SDS011;40769;51.512;5.494;2023-07-02T11:19:06;7.85;;;5.45;;
13807;SDS011;40769;51.512;5.494;2023-07-02T11:21:36;6.18;;;5.13;;
13807;SDS011;40769;51.512;5.494;2023-07-02T11:24:03;9.93;;;5.45;;
13807;SDS011;40769;51.512;5.494;2023-07-02T11:26:40;8.50;;;5.60;;
13807;SDS011;40769;51.512;5.494;2023-07-02T11:29:12;9.50;;;5.78;;
13807;SDS011;40769;51.512;5.494;2023-07-02T11:31:43;9.25;;;5.72;;
13807;SDS011;40769;51.512;5.494;2023-07-02T11:34:17;8.15;;;5.72;;
13807;SDS011;40769;51.512;5.494;2023-07-02T11:36:43;8.80;;;5.05;;
13807;SDS011;40769;51.512;5.494;2023-07-02T11:39:10;8.38;;;5.22;;
13807;SDS011;40769;51.512;5.494;2023-07-02T11:41:37;6.68;;;3.92;;
13807;SDS011;40769;51.512;5.494;2023-07-02T11:44:03;7.50;;;5.32;;
13807;SDS011;40769;51.512;5.494;2023-07-02T11:46:29;8.38;;;4.95;;
13807;SDS011;40769;51.512;5.494;2023-07-02T11:48:54;9.38;;;5.25;;
13807;SDS011;40769;51.512;5.494;2023-07-02T11:51:20;10.30;;;5.10;;
13807;SDS011;40769;51.512;5.494;2023-07-02T11:53:46;8.05;;;5.57;;
13807;SDS011;40769;51.512;5.494;2023-07-02T11:56:12;7.63;;;5.50;;
13807;SDS011;40769;51.512;5.494;2023-07-02T11:58:38;9.50;;;5.85;;
13807;SDS011;40769;51.512;5.494;2023-07-02T12:01:04;9.57;;;6.07;;
13807;SDS011;40769;51.512;5.494;2023-07-02T12:03:30;8.25;;;5.25;;
13807;SDS011;40769;51.512;5.494;2023-07-02T12:05:56;10.57;;;6.55;;
13807;SDS011;40769;51.512;5.494;2023-07-02T12:08:24;10.45;;;5.90;;
13807;SDS011;40769;51.512;5.494;2023-07-02T12:10:50;11.45;;;5.57;;
13807;SDS011;40769;51.512;5.494;2023-07-02T12:13:16;7.18;;;4.95;;
13807;SDS011;40769;51.512;5.494;2023-07-02T12:15:42;10.00;;;5.68;;
13807;SDS011;40769;51.512;5.494;2023-07-02T12:18:08;7.72;;;5.18;;
13807;SDS011;40769;51.512;5.494;2023-07-02T12:20:34;6.60;;;4.93;;
13807;SDS011;40769;51.512;5.494;2023-07-02T12:23:00;8.05;;;5.38;;
13807;SDS011;40769;51.512;5.494;2023-07-02T12:25:29;9.23;;;5.35;;
13807;SDS011;40769;51.512;5.494;2023-07-02T12:27:55;6.70;;;4.85;;
13807;SDS011;40769;51.512;5.494;2023-07-02T12:30:20;7.03;;;4.60;;
13807;SDS011;40769;51.512;5.494;2023-07-02T12:32:46;6.45;;;4.15;;
13807;SDS011;40769;51.512;5.494;2023-07-02T12:35:11;6.40;;;4.63;;
13807;SDS011;40769;51.512;5.494;2023-07-02T12:37:44;7.13;;;4.45;;
13807;SDS011;40769;51.512;5.494;2023-07-02T12:40:11;6.40;;;4.25;;
13807;SDS011;40769;51.512;5.494;2023-07-02T12:42:37;6.03;;;4.40;;
13807;SDS011;40769;51.512;5.494;2023-07-02T12:45:03;6.93;;;4.25;;
13807;SDS011;40769;51.512;5.494;2023-07-02T12:47:30;5.45;;;4.25;;
13807;SDS011;40769;51.512;5.494;2023-07-02T12:49:56;6.22;;;3.90;;
13807;SDS011;40769;51.512;5.494;2023-07-02T12:52:21;7.13;;;3.75;;
13807;SDS011;40769;51.512;5.494;2023-07-02T12:54:47;6.68;;;3.88;;
13807;SDS011;40769;51.512;5.494;2023-07-02T12:57:13;5.68;;;3.63;;
13807;SDS011;40769;51.512;5.494;2023-07-02T12:59:38;5.40;;;3.88;;
13807;SDS011;40769;51.512;5.494;2023-07-02T13:02:07;6.22;;;4.22;;
13807;SDS011;40769;51.512;5.494;2023-07-02T13:04:35;5.10;;;3.40;;
13807;SDS011;40769;51.512;5.494;2023-07-02T13:07:00;4.57;;;3.40;;
13807;SDS011;40769;51.512;5.494;2023-07-02T13:09:26;4.43;;;3.33;;
13807;SDS011;40769;51.512;5.494;2023-07-02T13:11:52;6.35;;;3.00;;
13807;SDS011;40769;51.512;5.494;2023-07-02T13:14:17;8.15;;;4.03;;
13807;SDS011;40769;51.512;5.494;2023-07-02T13:16:43;5.32;;;3.40;;
13807;SDS011;40769;51.512;5.494;2023-07-02T13:19:09;5.53;;;3.45;;
13807;SDS011;40769;51.512;5.494;2023-07-02T13:21:35;6.88;;;3.40;;
13807;SDS011;40769;51.512;5.494;2023-07-02T13:24:01;4.97;;;3.38;;
13807;SDS011;40769;51.512;5.494;2023-07-02T13:26:27;4.97;;;3.60;;
13807;SDS011;40769;51.512;5.494;2023-07-02T13:28:53;5.55;;;3.47;;
13807;SDS011;40769;51.512;5.494;2023-07-02T13:31:19;4.47;;;3.55;;
13807;SDS011;40769;51.512;5.494;2023-07-02T13:33:45;3.80;;;2.67;;
13807;SDS011;40769;51.512;5.494;2023-07-02T13:36:14;4.63;;;3.53;;
13807;SDS011;40769;51.512;5.494;2023-07-02T13:38:40;4.03;;;2.65;;
13807;SDS011;40769;51.512;5.494;2023-07-02T13:41:05;4.55;;;3.17;;
13807;SDS011;40769;51.512;5.494;2023-07-02T13:43:33;3.78;;;2.85;;
13807;SDS011;40769;51.512;5.494;2023-07-02T13:45:59;4.45;;;3.10;;
13807;SDS011;40769;51.512;5.494;2023-07-02T13:48:25;5.63;;;3.63;;
13807;SDS011;40769;51.512;5.494;2023-07-02T13:50:50;6.28;;;3.55;;
13807;SDS011;40769;51.512;5.494;2023-07-02T13:53:16;4.82;;;3.50;;
13807;SDS011;40769;51.512;5.494;2023-07-02T13:55:42;5.07;;;3.25;;
13807;SDS011;40769;51.512;5.494;2023-07-02T13:58:07;5.90;;;3.67;;
13807;SDS011;40769;51.512;5.494;2023-07-02T14:00:33;4.50;;;3.38;;
13807;SDS011;40769;51.512;5.494;2023-07-02T14:02:59;7.13;;;3.38;;
13807;SDS011;40769;51.512;5.494;2023-07-02T14:05:27;5.97;;;3.97;;
13807;SDS011;40769;51.512;5.494;2023-07-02T14:07:56;4.50;;;3.22;;
13807;SDS011;40769;51.512;5.494;2023-07-02T14:10:22;5.80;;;3.38;;
13807;SDS011;40769;51.512;5.494;2023-07-02T14:12:48;5.03;;;3.35;;
13807;SDS011;40769;51.512;5.494;2023-07-02T14:15:14;4.90;;;3.60;;
13807;SDS011;40769;51.512;5.494;2023-07-02T14:17:39;5.72;;;3.50;;
13807;SDS011;40769;51.512;5.494;2023-07-02T14:20:06;6.35;;;3.20;;
13807;SDS011;40769;51.512;5.494;2023-07-02T14:22:33;6.15;;;3.35;;
13807;SDS011;40769;51.512;5.494;2023-07-02T14:24:59;4.68;;;3.20;;
13807;SDS011;40769;51.512;5.494;2023-07-02T14:27:25;7.03;;;3.13;;
13807;SDS011;40769;51.512;5.494;2023-07-02T14:29:50;4.70;;;2.92;;
13807;SDS011;40769;51.512;5.494;2023-07-02T14:32:16;5.35;;;3.25;;
13807;SDS011;40769;51.512;5.494;2023-07-02T14:34:42;4.22;;;3.00;;
13807;SDS011;40769;51.512;5.494;2023-07-02T14:37:08;6.20;;;3.55;;
13807;SDS011;40769;51.512;5.494;2023-07-02T14:39:33;5.28;;;3.58;;
13807;SDS011;40769;51.512;5.494;2023-07-02T14:41:59;4.75;;;3.35;;